Johnson, Mississippi
Current Conditions -  °F | °C
As of 12:55 PM on Wednesday 26 Nov 2014 (Local Time) from KPIB Reporting Station
Clear Clear  
Wind Chill: 63°   Ceiling: Unl
Heat Index: 63°   Visibility: 10mi
Dew Point: 30°   Wind: 7mph
Humidity: 30%   Direction: 240°WSW
Pressure: 30.17"   Gusts: 17mph
Location:  31.5533°N, 89.2322°W
Report Text: KPIB 261855Z AUTO 24006G15KT 10SM CLR 17/M01 A3017 RMK AO1
Loading
Personal Weather Stations






























Interactive Weather Map New forecast layout! Learn more

10-Day Weather Forecast

Advertisements
Track Severe Weather on mobile